Elmadag, Turkey
Current Conditions -  °F | °C
As of 3:50 AM on Tuesday 27 Jan 2015 (Local Time) from LTAC Reporting Station
Haze Haze  
Wind Chill: 34°   Ceiling: Unl
Heat Index: 34°   Visibility: 2.5mi
Dew Point: 32°   Wind: 2mph
Humidity: 93%   Direction: NA
Pressure: 30.09"   Gusts: NA
Location:  39.93°N, 33.25°E
Report Text: LTAC 270050Z VRB02KT 4000 BR SCT040 01/M00 Q1019 NOSIG
Loading
Personal Weather Stations






























Interactive Weather Map New forecast layout! Learn more

10-Day Weather Forecast

Advertisements
Track Severe Weather on mobile